createdAt,value
2019-01-06T10:10:47.933Z,94581.47
2019-01-06T10:13:34.562Z,94580.52
2019-01-06T10:16:22.387Z,94582.59
2019-01-06T10:22:09.174Z,94578.55
2019-01-06T10:24:53.615Z,94580.16
2019-01-06T10:27:26.842Z,94578.62
2019-01-06T10:30:00.184Z,94600.14
2019-01-06T10:32:48.150Z,94584.97
2019-01-06T10:35:27.680Z,94581.59
2019-01-06T10:38:03.619Z,94597.00
2019-01-06T10:40:45.975Z,94593.33
2019-01-06T10:43:21.955Z,94594.78
2019-01-06T10:45:52.218Z,94605.02
2019-01-06T10:48:25.351Z,94588.50
2019-01-06T10:51:11.814Z,94590.27
2019-01-06T10:53:44.971Z,94579.86
2019-01-06T10:56:15.206Z,94583.55
2019-01-06T10:58:48.253Z,94572.64
2019-01-06T11:01:34.475Z,94585.33
2019-01-06T11:04:20.875Z,94592.05
2019-01-06T11:06:59.730Z,94581.92
2019-01-06T11:09:47.875Z,94586.22
2019-01-06T11:12:38.203Z,94585.47
2019-01-06T11:15:20.934Z,94576.81
2019-01-06T11:18:07.492Z,94583.41
2019-01-06T11:20:40.926Z,94584.05
2019-01-06T11:23:13.647Z,94574.27
2019-01-06T11:25:43.900Z,94575.23
2019-01-06T11:28:30.243Z,94571.06
2019-01-06T11:31:03.289Z,94573.93
2019-01-06T11:33:36.413Z,94569.13
2019-01-06T11:36:23.150Z,94572.02
2019-01-06T11:39:11.945Z,94580.67
2019-01-06T11:41:57.462Z,94570.56
2019-01-06T11:44:32.029Z,94590.63
2019-01-06T11:47:05.294Z,94583.88
2019-01-06T11:49:37.579Z,94581.94
2019-01-06T11:52:16.858Z,94576.04
2019-01-06T11:54:51.197Z,94577.13
2019-01-06T11:57:37.682Z,94581.14
2019-01-06T12:00:12.339Z,94582.92
2019-01-06T12:02:46.985Z,94591.91
2019-01-06T12:05:21.566Z,94594.14
2019-01-06T12:07:51.867Z,94600.23
2019-01-06T12:10:26.616Z,94600.86
2019-01-06T12:12:58.225Z,94590.78
2019-01-06T12:15:38.916Z,94607.61
2019-01-06T12:18:25.699Z,94613.19
2019-01-06T12:21:18.643Z,94620.38
2019-01-06T12:24:07.035Z,94621.38
2019-01-06T12:26:39.027Z,94625.05
2019-01-06T12:29:11.960Z,94625.71
2019-01-06T12:31:48.229Z,94625.86
2019-01-06T12:34:30.832Z,94629.22
2019-01-06T12:37:04.011Z,94629.03
2019-01-06T12:39:34.266Z,94636.69
2019-01-06T12:42:20.666Z,94636.72
2019-01-06T12:44:50.917Z,94638.98
2019-01-06T12:47:21.187Z,94646.17
2019-01-06T12:49:57.157Z,94646.02
2019-01-06T12:52:36.329Z,94647.61
2019-01-06T12:55:18.743Z,94659.47
2019-01-06T12:57:54.896Z,94655.91
2019-01-06T13:00:29.495Z,94658.74
2019-01-06T13:03:07.376Z,94661.12
2019-01-06T13:05:43.694Z,94665.50
2019-01-06T13:08:33.614Z,94665.13
2019-01-06T13:11:20.798Z,94670.56
2019-01-06T13:14:06.895Z,94668.72
2019-01-06T13:16:53.504Z,94683.64
2019-01-06T13:19:40.042Z,94694.75
2019-01-06T13:22:19.617Z,94689.24
2019-01-06T13:24:55.826Z,94687.48
2019-01-06T13:27:40.988Z,94690.42
2019-01-06T13:30:21.536Z,94700.97
2019-01-06T13:33:00.528Z,94701.28
2019-01-06T13:35:47.040Z,94701.63
2019-01-06T13:38:20.321Z,94696.83
2019-01-06T13:41:08.448Z,94716.67
2019-01-06T13:43:53.973Z,94713.70
2019-01-06T13:46:30.202Z,94707.62
2019-01-06T13:49:03.007Z,94709.73
2019-01-06T13:51:46.896Z,94714.03
2019-01-06T13:54:33.743Z,94719.78
2019-01-06T13:57:03.971Z,94719.13
2019-01-06T13:59:52.522Z,94714.89
2019-01-06T14:02:39.392Z,94722.99
2019-01-06T14:05:18.470Z,94728.38
2019-01-06T14:08:05.278Z,94725.52
2019-01-06T14:10:58.484Z,94731.66
2019-01-06T14:13:46.803Z,94725.05
2019-01-06T14:16:35.334Z,94733.98
2019-01-06T14:19:15.159Z,94726.34
2019-01-06T14:21:53.552Z,94726.67
2019-01-06T14:24:24.365Z,94741.95
2019-01-06T14:27:11.984Z,94725.94
2019-01-06T14:29:45.156Z,94715.98
2019-01-06T14:32:15.474Z,94743.13
2019-01-06T14:34:51.745Z,94736.69
2019-01-06T14:37:29.130Z,94743.75
2019-01-06T14:40:05.102Z,94738.52
2019-01-06T14:42:47.401Z,94741.30
2019-01-06T14:45:34.012Z,94756.73
2019-01-06T14:48:22.653Z,94755.63
2019-01-06T14:51:11.249Z,94756.24
2019-01-06T14:53:59.044Z,94749.93
2019-01-06T14:56:35.523Z,94751.14
2019-01-06T14:59:14.856Z,94751.78
2019-01-06T15:02:04.013Z,94758.19
2019-01-06T15:04:43.575Z,94750.98
2019-01-06T15:07:13.883Z,94752.30
2019-01-06T15:09:53.439Z,94759.41
2019-01-06T15:12:38.811Z,94765.48
2019-01-06T15:15:23.864Z,94753.77
2019-01-06T15:18:01.368Z,94753.06
2019-01-06T15:20:37.829Z,94756.95
2019-01-06T15:23:17.272Z,94750.84
2019-01-06T15:25:53.326Z,94763.12
2019-01-06T15:28:41.163Z,94752.66
2019-01-06T15:31:11.494Z,94749.77
2019-01-06T15:34:01.730Z,94773.50
2019-01-06T15:36:32.019Z,94769.33
2019-01-06T15:39:10.014Z,94758.05
2019-01-06T15:41:56.778Z,94762.17
2019-01-06T15:44:37.511Z,94768.00
2019-01-06T15:47:08.439Z,94771.69
2019-01-06T15:49:49.809Z,94772.02
2019-01-06T15:52:35.270Z,94771.75
2019-01-06T15:55:12.410Z,94772.41
2019-01-06T15:57:52.046Z,94776.91
2019-01-06T16:00:30.600Z,94787.95
2019-01-06T16:03:13.155Z,94778.91
2019-01-06T16:05:44.667Z,94786.34
2019-01-06T16:08:20.744Z,94782.41
2019-01-06T16:11:04.813Z,94783.78
2019-01-06T16:13:36.344Z,94787.72
2019-01-06T16:16:20.522Z,94788.52
2019-01-06T16:19:08.846Z,94776.53
2019-01-06T16:21:51.276Z,94779.75
2019-01-06T16:24:37.967Z,94766.02
2019-01-06T16:27:11.068Z,94797.90
2019-01-06T16:29:41.274Z,94786.16
2019-01-06T16:32:27.482Z,94787.98
2019-01-06T16:35:13.065Z,94788.34
2019-01-06T16:37:58.836Z,94789.04
2019-01-06T16:40:45.244Z,94799.46
2019-01-06T16:43:32.155Z,94805.05
2019-01-06T16:46:18.515Z,94797.29
2019-01-06T16:48:50.275Z,94803.34
2019-01-06T16:51:38.657Z,94791.66
2019-01-06T16:54:22.507Z,94794.44
2019-01-06T16:57:01.949Z,94798.41
2019-01-06T16:59:34.930Z,94796.66
2019-01-06T17:02:08.128Z,94789.88
2019-01-06T17:04:38.454Z,94798.93
2019-01-06T17:07:11.856Z,94794.95
2019-01-06T17:09:57.482Z,94788.94
2019-01-06T17:12:48.539Z,94783.83
2019-01-06T17:15:22.037Z,94787.24
2019-01-06T17:18:10.401Z,94800.45
2019-01-06T17:20:43.470Z,94783.67
2019-01-06T17:23:27.700Z,94773.59
2019-01-06T17:25:57.636Z,94789.80
2019-01-06T17:28:46.053Z,94783.03
2019-01-06T17:31:30.694Z,94784.83
2019-01-06T17:34:03.609Z,94790.09
2019-01-06T17:36:33.878Z,94795.20
2019-01-06T17:39:16.209Z,94811.36
2019-01-06T17:41:52.218Z,94804.02
2019-01-06T17:44:28.199Z,94789.75
2019-01-06T17:47:14.571Z,94796.10
2019-01-06T17:49:54.001Z,94809.27
2019-01-06T17:52:41.574Z,94818.47
2019-01-06T17:55:14.701Z,94815.58
2019-01-06T17:57:51.098Z,94823.67
2019-01-06T18:00:27.427Z,94815.00
2019-01-06T18:03:12.849Z,94823.34
2019-01-06T18:05:58.112Z,94825.38
2019-01-06T18:08:40.285Z,94827.80
2019-01-06T18:11:28.278Z,94831.66
2019-01-06T18:14:04.525Z,94834.21
2019-01-06T18:16:48.390Z,94836.58
2019-01-06T18:19:34.891Z,94835.54
2019-01-06T18:22:05.311Z,94841.59
2019-01-06T18:24:52.628Z,94841.13
2019-01-06T18:27:32.169Z,94849.29
2019-01-06T18:30:14.269Z,94844.21
2019-01-06T18:32:56.805Z,94846.58
2019-01-06T18:35:42.169Z,94858.05
2019-01-06T18:38:12.543Z,94860.33
2019-01-06T18:40:58.379Z,94868.72
2019-01-06T18:43:34.286Z,94875.30
2019-01-06T18:46:16.879Z,94864.64
2019-01-06T18:49:03.650Z,94875.63
2019-01-06T18:51:37.002Z,94884.22
2019-01-06T18:54:19.150Z,94870.04
2019-01-06T18:56:55.624Z,94878.05
2019-01-06T18:59:37.925Z,94873.53
2019-01-06T19:02:28.006Z,94883.09
2019-01-06T19:05:14.923Z,94886.98
2019-01-06T19:08:01.329Z,94891.98
2019-01-06T19:10:47.931Z,94895.16
2019-01-06T19:13:30.384Z,94887.80
2019-01-06T19:16:00.625Z,94892.59
2019-01-06T19:18:42.257Z,94887.66
2019-01-06T19:21:15.248Z,94896.44
2019-01-06T19:24:04.515Z,94883.22
2019-01-06T19:26:37.813Z,94885.35
2019-01-06T19:29:09.559Z,94888.29
2019-01-06T19:31:39.902Z,94886.72
2019-01-06T19:34:19.642Z,94890.83
2019-01-06T19:37:06.446Z,94897.02
2019-01-06T19:39:58.677Z,94883.22
2019-01-06T19:42:35.050Z,94895.80
2019-01-06T19:45:05.385Z,94891.44
2019-01-06T19:47:44.703Z,94890.20
2019-01-06T19:50:32.663Z,94890.69
2019-01-06T19:53:02.952Z,94901.63
2019-01-06T19:55:37.404Z,94900.67
2019-01-06T19:58:25.843Z,94903.27
2019-01-06T20:00:59.180Z,94908.55
2019-01-06T20:03:38.447Z,94917.45
2019-01-06T20:06:14.885Z,94921.14
2019-01-06T20:08:51.060Z,94919.48
2019-01-06T20:11:39.736Z,94913.50
2019-01-06T20:14:19.004Z,94917.73
2019-01-06T20:16:49.406Z,94915.25
2019-01-06T20:19:31.624Z,94920.38
2019-01-06T20:22:01.830Z,94908.63
2019-01-06T20:24:41.623Z,94911.73
2019-01-06T20:27:28.025Z,94911.59
2019-01-06T20:30:01.038Z,94916.59
2019-01-06T20:32:33.765Z,94919.34
2019-01-06T20:35:07.139Z,94919.87
2019-01-06T20:37:40.194Z,94921.95
2019-01-06T20:40:10.579Z,94921.48
2019-01-06T20:42:57.285Z,94922.90
2019-01-06T20:45:38.765Z,94921.42
2019-01-06T20:48:17.454Z,94914.41
2019-01-06T20:50:47.774Z,94915.30
2019-01-06T20:53:20.903Z,94914.03
2019-01-06T20:56:03.149Z,94917.87
2019-01-06T20:58:43.759Z,94910.91
2019-01-06T21:01:14.119Z,94908.30
2019-01-06T21:04:00.854Z,94907.63
2019-01-06T21:06:33.744Z,94911.80
2019-01-06T21:09:20.134Z,94914.64
2019-01-06T21:12:05.743Z,94919.67
2019-01-06T21:14:52.181Z,94921.48
2019-01-06T21:17:28.198Z,94915.45
2019-01-06T21:20:01.238Z,94914.70
2019-01-06T21:22:31.496Z,94917.78
2019-01-06T21:25:04.928Z,94919.73
2019-01-06T21:27:50.575Z,94926.16
2019-01-06T21:30:20.937Z,94917.01
2019-01-06T21:33:06.573Z,94917.78
2019-01-06T21:35:36.778Z,94918.45
2019-01-06T21:38:13.131Z,94911.73
2019-01-06T21:40:46.419Z,94916.17
2019-01-06T21:43:33.227Z,94918.14
2019-01-06T21:46:07.652Z,94921.34
2019-01-06T21:48:48.611Z,94915.17
2019-01-06T21:51:21.810Z,94912.23
2019-01-06T21:54:08.559Z,94909.67
2019-01-06T21:56:41.730Z,94917.87
2019-01-06T21:59:20.742Z,94909.06
2019-01-06T22:02:09.396Z,94912.00
2019-01-06T22:04:45.911Z,94915.84
2019-01-06T22:07:24.979Z,94913.00
2019-01-06T22:10:01.266Z,94915.73
2019-01-06T22:12:34.580Z,94917.81
2019-01-06T22:15:07.703Z,94914.56
2019-01-06T22:17:54.390Z,94924.02
2019-01-06T22:20:36.883Z,94918.81
2019-01-06T22:23:23.676Z,94915.17
2019-01-06T22:25:56.821Z,94928.38
2019-01-06T22:28:27.089Z,94924.63
2019-01-06T22:31:10.554Z,94924.07
2019-01-06T22:33:40.813Z,94920.91
2019-01-06T22:36:11.007Z,94916.00
2019-01-06T22:38:43.945Z,94924.95
2019-01-06T22:41:30.538Z,94927.57
2019-01-06T22:44:03.707Z,94917.62
2019-01-06T22:46:43.131Z,94925.16
2019-01-06T22:49:13.363Z,94919.90
2019-01-06T22:52:00.017Z,94912.28
2019-01-06T22:54:36.206Z,94916.26
2019-01-06T22:57:22.587Z,94914.23
2019-01-06T22:59:52.764Z,94908.02
2019-01-06T23:02:39.401Z,94911.11
2019-01-06T23:05:25.815Z,94904.94
2019-01-06T23:08:11.149Z,94914.76
2019-01-06T23:10:53.421Z,94919.20
2019-01-06T23:13:23.607Z,94913.98
2019-01-06T23:15:53.844Z,94916.70
2019-01-06T23:18:27.073Z,94918.27
2019-01-06T23:21:06.191Z,94928.69
2019-01-06T23:23:38.996Z,94926.69
2019-01-06T23:26:12.291Z,94926.77
2019-01-06T23:28:42.767Z,94926.30
2019-01-06T23:31:15.910Z,94933.61
2019-01-06T23:33:47.684Z,94934.02
2019-01-06T23:36:24.085Z,94929.91
2019-01-06T23:39:00.974Z,94925.27
2019-01-06T23:41:40.452Z,94925.48
2019-01-06T23:44:10.727Z,94926.16
2019-01-06T23:46:58.284Z,94930.94
2019-01-06T23:49:45.170Z,94931.88
2019-01-06T23:52:31.798Z,94924.68
2019-01-06T23:55:05.268Z,94928.22
2019-01-06T23:57:44.414Z,94926.96
